Macau, China
Current Conditions -  °F | °C
As of 10:30 AM on Friday 21 Nov 2014 (Local Time) from VMMC Reporting Station
Few Clouds Few Clouds  
Wind Chill: 73°   Ceiling: Unl
Heat Index: 73°   Visibility: 6mi
Dew Point: 64°   Wind: 9mph
Humidity: 73%   Direction: 20°NNE
Pressure: 30.09"   Gusts: NA
Location:  22.2°N, 113.54°E
Report Text: VMMC 210230Z 02008KT 9999 FEW020 23/18 Q1019 NOSIG
Loading
Personal Weather Stations






























Interactive Weather Map New forecast layout! Learn more

10-Day Weather Forecast

Advertisements
Track Severe Weather on mobile